Terminal Aerodrome Forecast
Issued by NWS

Home | Current Version | Previous Version | Text Only | Print | Product List | Glossary On
Versions: 1 2 3 4 5 6 7 8 9 10 11 12 13 14 15 16 17 18 19 20
000
FTUS44 KBMX 211700
TAFTOI
TAF
KTOI 211726Z 2118/2218 05005KT P6SM OVC015
     FM212000 07006KT P6SM OVC025
     FM220400 10004KT 5SM BR OVC008
     FM220700 10004KT 3SM BR OVC003=

USA.gov is the U.S. government's official web portal to all federal, state and local government web resources and services.